Time;durP1;ratioP1;P1;durP2;ratioP2;P2;SDS_P1;SDS_P2;PMS_P1;PMS_P2;Temp;Humidity;BMP_temperature;BMP_pressure;BME280_temperature;BME280_humidity;BME280_pressure;Samples;Min_cycle;Max_cycle;Signal;HPM_P1;HPM_P2
2022/09/22 00:02:13;;;;;;;63.25;14.50;;;;;;;;;;5048946;28;20546;-61
2022/09/22 00:04:40;;;;;;;73.45;15.50;;;;;;;;;;5045371;28;20053;-63
2022/09/22 00:07:06;;;;;;;92.78;15.88;;;;;;;;;;5045097;28;20516;-62
2022/09/22 00:09:33;;;;;;;61.80;13.77;;;;;;;;;;5050112;28;20037;-63
2022/09/22 00:11:59;;;;;;;90.50;15.00;;;;;;;;;;5046222;28;20041;-60
2022/09/22 00:14:26;;;;;;;52.13;13.10;;;;;;;;;;5050391;28;20499;-60
2022/09/22 00:16:55;;;;;;;74.30;14.23;;;;;;;;;;5046502;28;20044;-60
2022/09/22 00:19:23;;;;;;;60.08;14.88;;;;;;;;;;5045958;28;20482;-59
2022/09/22 00:21:50;;;;;;;70.95;14.68;;;;;;;;;;5049080;28;20045;-60
2022/09/22 00:24:17;;;;;;;71.05;14.07;;;;;;;;;;5045650;28;20049;-62
2022/09/22 00:26:44;;;;;;;81.82;16.27;;;;;;;;;;5048800;28;20405;-62
2022/09/22 00:29:11;;;;;;;67.00;15.48;;;;;;;;;;5046771;28;20049;-62
2022/09/22 00:31:39;;;;;;;72.18;15.07;;;;;;;;;;5045283;28;20590;-62
2022/09/22 00:34:06;;;;;;;75.30;15.20;;;;;;;;;;5045558;28;20098;-62
2022/09/22 00:36:33;;;;;;;58.90;14.15;;;;;;;;;;5046257;28;20041;-62
2022/09/22 00:39:00;;;;;;;78.00;14.27;;;;;;;;;;5045455;28;20029;-62
2022/09/22 00:41:28;;;;;;;63.20;14.77;;;;;;;;;;5045581;28;20083;-61
2022/09/22 00:44:15;;;;;;;72.05;14.82;;;;;;;;;;5045255;28;20382;-62
2022/09/22 00:46:43;;;;;;;93.97;17.15;;;;;;;;;;5007097;28;20061;-62
2022/09/22 00:49:10;;;;;;;68.88;13.77;;;;;;;;;;5007351;28;20046;-61
2022/09/22 00:51:38;;;;;;;73.25;14.93;;;;;;;;;;5006682;28;20522;-61
2022/09/22 00:54:07;;;;;;;75.35;16.00;;;;;;;;;;5006700;28;20038;-62
2022/09/22 00:56:37;;;;;;;71.80;14.75;;;;;;;;;;5007462;28;20053;-61
2022/09/22 00:59:06;;;;;;;89.80;17.48;;;;;;;;;;5007142;28;20454;-61
2022/09/22 01:01:39;;;;;;;65.90;13.82;;;;;;;;;;5007133;28;20048;-61
2022/09/22 01:04:06;;;;;;;89.50;16.60;;;;;;;;;;5006568;28;21009;-61
2022/09/22 01:06:33;;;;;;;86.07;15.93;;;;;;;;;;5005921;28;20158;-62
2022/09/22 01:09:00;;;;;;;66.15;14.27;;;;;;;;;;5006911;28;20038;-60
2022/09/22 01:11:28;;;;;;;68.38;14.18;;;;;;;;;;5007051;28;20529;-61
2022/09/22 01:14:16;;;;;;;91.25;15.57;;;;;;;;;;5006772;28;20050;-62
2022/09/22 01:16:51;;;;;;;60.28;12.38;;;;;;;;;;5006791;28;20136;-63
2022/09/22 01:19:27;;;;;;;54.33;12.82;;;;;;;;;;5006910;28;20081;-62
2022/09/22 01:22:09;;;;;;;78.05;12.85;;;;;;;;;;5008214;28;20045;-63
2022/09/22 01:24:47;;;;;;;74.13;13.32;;;;;;;;;;5035649;28;20088;-63
2022/09/22 01:27:29;;;;;;;65.93;12.73;;;;;;;;;;5044664;28;20065;-62
2022/09/22 01:30:16;;;;;;;71.00;12.40;;;;;;;;;;5045397;28;20056;-62
2022/09/22 01:32:48;;;;;;;84.53;13.07;;;;;;;;;;5045036;28;20059;-61
2022/09/22 01:35:15;;;;;;;57.97;11.25;;;;;;;;;;5046474;28;20064;-62
2022/09/22 01:37:41;;;;;;;62.20;11.90;;;;;;;;;;5044524;28;20037;-63
2022/09/22 01:40:13;;;;;;;90.85;13.65;;;;;;;;;;5043735;28;20445;-63
2022/09/22 01:42:44;;;;;;;71.10;12.40;;;;;;;;;;5043377;28;20120;-62
2022/09/22 01:45:15;;;;;;;63.97;11.93;;;;;;;;;;5044265;28;20047;-62
2022/09/22 01:47:46;;;;;;;99.53;13.93;;;;;;;;;;5047616;28;20503;-62
2022/09/22 01:50:16;;;;;;;73.68;12.20;;;;;;;;;;5046963;28;20067;-61
2022/09/22 01:52:43;;;;;;;78.70;11.75;;;;;;;;;;5044001;28;20036;-61
2022/09/22 01:55:12;;;;;;;55.95;11.68;;;;;;;;;;5044016;28;20041;-61
2022/09/22 01:57:57;;;;;;;64.63;12.23;;;;;;;;;;5043983;28;20041;-61
2022/09/22 02:00:25;;;;;;;52.70;10.85;;;;;;;;;;5031640;28;20056;-62
2022/09/22 02:02:57;;;;;;;79.13;12.20;;;;;;;;;;5046160;28;20115;-62
2022/09/22 02:05:47;;;;;;;78.80;13.45;;;;;;;;;;5048258;28;20489;-62
2022/09/22 02:08:16;;;;;;;73.93;12.93;;;;;;;;;;5041269;28;20060;-63
2022/09/22 02:10:45;;;;;;;91.07;13.98;;;;;;;;;;5043353;28;20045;-63
2022/09/22 02:13:12;;;;;;;56.40;11.27;;;;;;;;;;5044670;28;20041;-62
2022/09/22 02:18:26;;;;;;;49.70;10.95;;;;;;;;;;5046311;28;20052;-63
2022/09/22 02:20:53;;;;;;;74.22;13.93;;;;;;;;;;5051304;28;21012;-63
2022/09/22 02:23:19;;;;;;;88.80;15.40;;;;;;;;;;5053617;28;20056;-63
2022/09/22 02:25:46;;;;;;;73.18;15.13;;;;;;;;;;5047754;28;20512;-63
2022/09/22 02:28:17;;;;;;;76.35;14.57;;;;;;;;;;5047532;28;20160;-62
2022/09/22 02:30:45;;;;;;;99.38;16.55;;;;;;;;;;5047543;28;20118;-62
2022/09/22 02:33:33;;;;;;;89.85;15.40;;;;;;;;;;5047467;28;20489;-62
2022/09/22 02:36:24;;;;;;;96.35;15.32;;;;;;;;;;5048364;28;20072;-61
2022/09/22 02:39:05;;;;;;;77.13;14.00;;;;;;;;;;5030574;28;20481;-61
2022/09/22 02:41:39;;;;;;;52.85;12.35;;;;;;;;;;5048175;28;20045;-61
2022/09/22 02:44:05;;;;;;;;;;;;;;;;;;5048907;28;20040;-59
2022/09/22 02:46:37;;;;;;;95.25;14.18;;;;;;;;;;5050670;28;19931;-62
2022/09/22 02:49:09;;;;;;;94.72;14.35;;;;;;;;;;5047305;28;20035;-63
2022/09/22 02:51:36;;;;;;;110.47;15.95;;;;;;;;;;5046618;28;20040;-63
2022/09/22 02:54:03;;;;;;;106.35;14.82;;;;;;;;;;5046729;28;20038;-63
2022/09/22 02:56:29;;;;;;;63.45;13.30;;;;;;;;;;5051780;28;20052;-63
2022/09/22 02:58:56;;;;;;;61.17;12.98;;;;;;;;;;5047205;28;20489;-62
2022/09/22 03:01:34;;;;;;;55.65;11.63;;;;;;;;;;5047398;28;20048;-62
2022/09/22 03:04:01;;;;;;;83.28;13.80;;;;;;;;;;5046615;28;20060;-62
2022/09/22 03:06:27;;;;;;;78.40;12.85;;;;;;;;;;5047278;28;20044;-62
2022/09/22 03:08:54;;;;;;;56.13;10.93;;;;;;;;;;5048543;28;20057;-62
2022/09/22 03:11:20;;;;;;;48.08;10.15;;;;;;;;;;5050492;28;20060;-62
2022/09/22 03:13:46;;;;;;;91.25;13.38;;;;;;;;;;5046634;28;20076;-62
2022/09/22 03:16:13;;;;;;;77.95;11.25;;;;;;;;;;5046699;28;20037;-62
2022/09/22 03:18:39;;;;;;;58.28;11.05;;;;;;;;;;5047383;28;20568;-62
2022/09/22 03:21:06;;;;;;;88.82;12.75;;;;;;;;;;5046953;28;20401;-62
2022/09/22 03:23:33;;;;;;;48.08;10.82;;;;;;;;;;5051117;28;20498;-62
2022/09/22 03:25:59;;;;;;;68.13;12.45;;;;;;;;;;5050722;28;20048;-62
2022/09/22 03:28:26;;;;;;;65.45;12.45;;;;;;;;;;5046713;28;20037;-63
2022/09/22 03:30:52;;;;;;;60.15;12.20;;;;;;;;;;5045438;28;20469;-64
2022/09/22 03:33:19;;;;;;;51.60;10.98;;;;;;;;;;5046691;28;20034;-62
2022/09/22 03:35:45;;;;;;;95.20;12.95;;;;;;;;;;5049590;28;20351;-61
2022/09/22 03:38:12;;;;;;;55.95;11.57;;;;;;;;;;5047676;28;20506;-63
2022/09/22 03:40:38;;;;;;;51.83;10.82;;;;;;;;;;5046413;28;20033;-62
2022/09/22 03:43:05;;;;;;;70.70;12.85;;;;;;;;;;5046496;28;20037;-63
2022/09/22 03:45:31;;;;;;;54.97;11.13;;;;;;;;;;5046989;28;20064;-63
2022/09/22 03:47:58;;;;;;;78.80;12.63;;;;;;;;;;5047485;28;20029;-63
2022/09/22 03:50:24;;;;;;;57.40;11.48;;;;;;;;;;5050556;28;20476;-64
2022/09/22 03:52:51;;;;;;;85.85;13.48;;;;;;;;;;5045617;28;20067;-62
2022/09/22 03:55:17;;;;;;;53.42;12.32;;;;;;;;;;5046553;28;20029;-66
2022/09/22 03:57:44;;;;;;;78.72;12.98;;;;;;;;;;5045937;28;20045;-65
2022/09/22 04:00:12;;;;;;;83.55;14.55;;;;;;;;;;5047670;28;20156;-64
2022/09/22 04:02:40;;;;;;;67.53;15.23;;;;;;;;;;5050198;28;20127;-63
2022/09/22 04:05:07;;;;;;;62.67;13.85;;;;;;;;;;5047321;28;20033;-64
2022/09/22 04:07:33;;;;;;;72.07;17.42;;;;;;;;;;5046001;28;20044;-60
2022/09/22 04:10:00;;;;;;;81.68;17.88;;;;;;;;;;5043539;28;20580;-62
2022/09/22 04:12:27;;;;;;;59.88;15.05;;;;;;;;;;5045630;28;20067;-61
2022/09/22 04:14:54;;;;;;;142.75;19.27;;;;;;;;;;5046784;28;20056;-60
2022/09/22 04:17:20;;;;;;;60.75;13.73;;;;;;;;;;5049095;28;20045;-59
2022/09/22 04:19:47;;;;;;;108.53;16.73;;;;;;;;;;5044561;28;20045;-61
2022/09/22 04:22:13;;;;;;;103.22;15.95;;;;;;;;;;5051347;28;20045;-61
2022/09/22 04:24:40;;;;;;;89.30;15.02;;;;;;;;;;5043735;28;20041;-61
2022/09/22 04:27:07;;;;;;;214.95;21.75;;;;;;;;;;5045293;28;20496;-61
2022/09/22 04:29:46;;;;;;;113.30;15.30;;;;;;;;;;5048025;28;20136;-61
2022/09/22 04:32:13;;;;;;;105.80;16.85;;;;;;;;;;5047397;28;20497;-62
2022/09/22 04:34:39;;;;;;;74.15;15.20;;;;;;;;;;5045287;28;20417;-61
2022/09/22 04:37:06;;;;;;;133.90;18.55;;;;;;;;;;5045044;28;20037;-62
2022/09/22 04:39:32;;;;;;;76.75;16.02;;;;;;;;;;5045300;28;20048;-62
2022/09/22 04:41:59;;;;;;;131.52;18.48;;;;;;;;;;5048218;28;20077;-61
2022/09/22 04:44:26;;;;;;;56.00;13.30;;;;;;;;;;5049713;28;20111;-62
2022/09/22 04:46:54;;;;;;;62.53;13.70;;;;;;;;;;5044288;28;20045;-60
2022/09/22 04:49:21;;;;;;;91.57;16.20;;;;;;;;;;5044556;28;20041;-60
2022/09/22 04:51:47;;;;;;;72.13;14.07;;;;;;;;;;5044891;28;20758;-60
2022/09/22 04:54:14;;;;;;;69.40;14.35;;;;;;;;;;5044858;28;20037;-60
2022/09/22 04:56:41;;;;;;;85.10;15.52;;;;;;;;;;5048335;28;20041;-61
2022/09/22 04:59:07;;;;;;;59.10;15.00;;;;;;;;;;5046123;28;20556;-61
2022/09/22 05:01:34;;;;;;;70.90;16.95;;;;;;;;;;5044689;28;20393;-61
2022/09/22 05:04:01;;;;;;;111.72;19.50;;;;;;;;;;5043126;28;20037;-61
2022/09/22 05:06:27;;;;;;;87.22;17.13;;;;;;;;;;5044362;28;20046;-61
2022/09/22 05:08:54;;;;;;;85.95;16.35;;;;;;;;;;5045798;28;20052;-61
2022/09/22 05:11:23;;;;;;;64.93;16.92;;;;;;;;;;5048211;28;20425;-61
2022/09/22 05:13:49;;;;;;;82.00;16.85;;;;;;;;;;5044654;28;20060;-61
2022/09/22 05:16:16;;;;;;;92.15;18.75;;;;;;;;;;5044080;28;20454;-61
2022/09/22 05:18:43;;;;;;;69.53;16.67;;;;;;;;;;5044456;28;20476;-61
2022/09/22 05:21:09;;;;;;;67.28;14.43;;;;;;;;;;5051393;28;20118;-59
2022/09/22 05:23:36;;;;;;;73.47;14.10;;;;;;;;;;5049274;28;20498;-62
2022/09/22 05:26:02;;;;;;;76.10;14.30;;;;;;;;;;5045833;28;20052;-59
2022/09/22 05:28:29;;;;;;;65.93;13.15;;;;;;;;;;5044550;28;20049;-59
2022/09/22 05:30:55;;;;;;;45.30;11.52;;;;;;;;;;5048761;28;20056;-59
2022/09/22 05:33:22;;;;;;;54.83;12.40;;;;;;;;;;5044422;28;20409;-59
2022/09/22 05:35:48;;;;;;;106.25;14.27;;;;;;;;;;5047221;28;20102;-60
2022/09/22 05:38:15;;;;;;;73.68;12.73;;;;;;;;;;5046604;28;20044;-59
2022/09/22 05:40:44;;;;;;;76.72;12.55;;;;;;;;;;5044603;28;20413;-59
2022/09/22 05:43:10;;;;;;;94.45;15.15;;;;;;;;;;5044861;28;20558;-59
2022/09/22 05:45:37;;;;;;;58.50;12.13;;;;;;;;;;5044447;28;20041;-59
2022/09/22 05:48:03;;;;;;;63.33;11.85;;;;;;;;;;5044708;28;20041;-59
2022/09/22 05:50:30;;;;;;;58.28;12.30;;;;;;;;;;5049204;28;20037;-59
2022/09/22 05:53:09;;;;;;;55.15;11.57;;;;;;;;;;5045022;28;20112;-59
2022/09/22 05:55:36;;;;;;;58.83;11.75;;;;;;;;;;5050557;28;20412;-59
2022/09/22 05:58:03;;;;;;;50.65;11.77;;;;;;;;;;5048091;28;20037;-59
2022/09/22 06:00:30;;;;;;;32.15;10.13;;;;;;;;;;5048764;28;20048;-59
2022/09/22 06:02:57;;;;;;;63.38;12.65;;;;;;;;;;5049344;28;20203;-59
2022/09/22 06:05:24;;;;;;;50.10;10.43;;;;;;;;;;5052120;28;20093;-59
2022/09/22 06:07:59;;;;;;;44.95;10.00;;;;;;;;;;5047990;28;20467;-59
2022/09/22 06:10:26;;;;;;;54.75;10.68;;;;;;;;;;5047913;28;20507;-59
2022/09/22 06:12:57;;;;;;;46.28;9.65;;;;;;;;;;5047678;28;20041;-60
2022/09/22 06:15:24;;;;;;;48.78;8.80;;;;;;;;;;5047861;28;20046;-59
2022/09/22 06:17:51;;;;;;;76.68;10.90;;;;;;;;;;5050308;28;20044;-59
2022/09/22 06:20:18;;;;;;;46.80;9.95;;;;;;;;;;5054172;28;20036;-59
2022/09/22 06:22:44;;;;;;;62.05;10.52;;;;;;;;;;5050534;28;20041;-59
2022/09/22 06:25:10;;;;;;;92.38;12.05;;;;;;;;;;5046640;28;20476;-59
2022/09/22 06:27:38;;;;;;;55.28;10.50;;;;;;;;;;5047271;28;20041;-59
2022/09/22 06:30:08;;;;;;;71.82;12.00;;;;;;;;;;5048126;28;20412;-59
2022/09/22 06:32:38;;;;;;;67.32;11.25;;;;;;;;;;5052785;28;20044;-59
2022/09/22 06:35:05;;;;;;;67.40;10.23;;;;;;;;;;5047274;28;20041;-59
2022/09/22 06:37:32;;;;;;;101.95;13.35;;;;;;;;;;5047130;28;20040;-59
2022/09/22 06:39:58;;;;;;;110.15;13.73;;;;;;;;;;5046316;28;20041;-58
2022/09/22 06:42:25;;;;;;;49.25;10.23;;;;;;;;;;5046350;28;20504;-59
2022/09/22 06:44:52;;;;;;;120.03;14.65;;;;;;;;;;5047258;28;20507;-59
2022/09/22 06:47:19;;;;;;;79.28;12.02;;;;;;;;;;5047489;28;20059;-59
2022/09/22 06:49:46;;;;;;;53.22;11.15;;;;;;;;;;5046042;28;20044;-59
2022/09/22 06:52:12;;;;;;;58.47;10.15;;;;;;;;;;5045107;28;20048;-59
2022/09/22 06:54:41;;;;;;;73.60;10.80;;;;;;;;;;5047675;28;20478;-59
2022/09/22 06:57:09;;;;;;;45.45;9.13;;;;;;;;;;5048319;28;20033;-59
2022/09/22 06:59:37;;;;;;;37.50;8.15;;;;;;;;;;5047806;28;20535;-59
2022/09/22 07:02:06;;;;;;;86.45;10.90;;;;;;;;;;5047236;28;20056;-59
2022/09/22 07:04:35;;;;;;;83.60;9.82;;;;;;;;;;5047266;28;20037;-59
2022/09/22 07:07:02;;;;;;;81.95;9.95;;;;;;;;;;5047125;28;20040;-59
2022/09/22 07:09:30;;;;;;;52.58;9.00;;;;;;;;;;5047006;28;20049;-60
2022/09/22 07:11:57;;;;;;;88.68;10.05;;;;;;;;;;5048967;28;20044;-59
2022/09/22 07:14:24;;;;;;;72.40;8.73;;;;;;;;;;5050416;28;20495;-59
2022/09/22 07:16:51;;;;;;;46.53;7.50;;;;;;;;;;5046988;28;20473;-60
2022/09/22 07:19:17;;;;;;;34.03;7.07;;;;;;;;;;5045910;28;20593;-59
2022/09/22 07:21:46;;;;;;;71.80;9.07;;;;;;;;;;5053186;28;20056;-60
2022/09/22 07:24:13;;;;;;;58.20;8.70;;;;;;;;;;5047196;28;20041;-59
2022/09/22 07:26:42;;;;;;;39.28;7.55;;;;;;;;;;5051396;28;20053;-60
2022/09/22 07:29:12;;;;;;;43.67;7.30;;;;;;;;;;5047523;28;20045;-59
2022/09/22 07:31:39;;;;;;;64.38;9.55;;;;;;;;;;5046531;28;20068;-59
2022/09/22 07:34:06;;;;;;;55.25;8.20;;;;;;;;;;5046828;28;20099;-60
2022/09/22 07:36:33;;;;;;;49.63;7.47;;;;;;;;;;5046699;28;20045;-59
2022/09/22 07:39:04;;;;;;;50.15;8.20;;;;;;;;;;5047929;28;20519;-59
2022/09/22 07:41:31;;;;;;;28.23;5.50;;;;;;;;;;5051088;28;20140;-59
2022/09/22 07:46:43;;;;;;;31.63;5.93;;;;;;;;;;5048882;28;20382;-59
2022/09/22 07:49:10;;;;;;;74.00;8.48;;;;;;;;;;5046469;28;20497;-59
2022/09/22 07:51:37;;;;;;;78.95;8.75;;;;;;;;;;5050776;28;20041;-59
2022/09/22 07:54:06;;;;;;;45.85;6.43;;;;;;;;;;5047534;28;20041;-59
2022/09/22 07:56:34;;;;;;;42.50;6.10;;;;;;;;;;5050863;28;20049;-60
2022/09/22 07:59:03;;;;;;;36.38;5.80;;;;;;;;;;5045862;28;20886;-59
2022/09/22 08:01:31;;;;;;;44.97;6.63;;;;;;;;;;5046314;28;20037;-60
2022/09/22 08:03:58;;;;;;;81.72;8.38;;;;;;;;;;5046113;28;20098;-59
2022/09/22 08:06:26;;;;;;;23.65;4.63;;;;;;;;;;5045199;28;20505;-60
2022/09/22 08:08:55;;;;;;;50.35;6.28;;;;;;;;;;5048283;28;20052;-60
2022/09/22 08:11:23;;;;;;;55.22;6.32;;;;;;;;;;5048495;28;20056;-59
2022/09/22 08:13:52;;;;;;;38.15;5.50;;;;;;;;;;5045716;28;20044;-60
2022/09/22 08:16:21;;;;;;;37.97;5.28;;;;;;;;;;5045294;28;20623;-59
2022/09/22 08:18:54;;;;;;;60.10;5.80;;;;;;;;;;5045797;28;20049;-59
2022/09/22 08:21:21;;;;;;;;;;;;;;;;;;5053704;28;20025;-60
2022/09/22 08:23:51;;;;;;;52.60;5.90;;;;;;;;;;5048710;28;19929;-59
2022/09/22 08:26:18;;;;;;;86.68;8.02;;;;;;;;;;5047848;28;20052;-59
2022/09/22 08:28:45;;;;;;;76.28;7.45;;;;;;;;;;5045763;28;20075;-59
2022/09/22 08:31:13;;;;;;;56.63;6.70;;;;;;;;;;5049307;28;20064;-59
2022/09/22 08:33:41;;;;;;;44.03;5.63;;;;;;;;;;5045936;28;20056;-59
2022/09/22 08:36:08;;;;;;;47.95;5.90;;;;;;;;;;5046094;28;20052;-59
2022/09/22 08:38:34;;;;;;;39.22;5.30;;;;;;;;;;5049620;28;20041;-59
2022/09/22 08:41:12;;;;;;;33.00;4.97;;;;;;;;;;5045229;28;20049;-59
2022/09/22 08:43:54;;;;;;;46.25;5.72;;;;;;;;;;5041821;28;20041;-59
2022/09/22 08:46:43;;;;;;;24.42;3.67;;;;;;;;;;5045455;28;20033;-59
2022/09/22 08:52:17;;;;;;;92.78;7.70;;;;;;;;;;5045138;28;20098;-59
2022/09/22 08:54:44;;;;;;;26.97;4.17;;;;;;;;;;5045262;28;20041;-59
2022/09/22 08:57:22;;;;;;;31.83;3.95;;;;;;;;;;5045429;28;20048;-60
2022/09/22 08:59:52;;;;;;;70.13;5.70;;;;;;;;;;5045588;28;20121;-59
2022/09/22 09:02:42;;;;;;;24.30;3.38;;;;;;;;;;5047351;28;20120;-59
2022/09/22 09:05:31;;;;;;;64.78;5.80;;;;;;;;;;5041315;28;20047;-59
2022/09/22 09:07:59;;;;;;;58.55;5.60;;;;;;;;;;5006213;28;20049;-59
2022/09/22 09:10:37;;;;;;;37.28;4.53;;;;;;;;;;5006329;28;20193;-59
2022/09/22 09:13:13;;;;;;;40.97;4.00;;;;;;;;;;5007241;28;20054;-59
2022/09/22 09:15:51;;;;;;;61.05;5.40;;;;;;;;;;5006699;28;20100;-59
2022/09/22 09:18:21;;;;;;;27.40;3.28;;;;;;;;;;5006845;28;20042;-59
2022/09/22 09:20:50;;;;;;;71.00;5.93;;;;;;;;;;5014290;28;20045;-59
2022/09/22 09:23:19;;;;;;;38.30;4.15;;;;;;;;;;5007118;28;20046;-59
2022/09/22 09:25:49;;;;;;;37.35;3.88;;;;;;;;;;5006282;28;20058;-59
2022/09/22 09:28:20;;;;;;;80.43;6.57;;;;;;;;;;5005731;28;20057;-59
2022/09/22 09:30:55;;;;;;;22.08;3.47;;;;;;;;;;5006993;28;20584;-59
2022/09/22 09:33:25;;;;;;;42.83;4.63;;;;;;;;;;5006634;28;20052;-59
2022/09/22 09:35:52;;;;;;;41.63;4.20;;;;;;;;;;5006776;28;20161;-59
2022/09/22 09:38:25;;;;;;;35.30;3.97;;;;;;;;;;5014204;28;20730;-59
2022/09/22 09:40:54;;;;;;;53.33;4.68;;;;;;;;;;5008403;28;20052;-59
2022/09/22 09:43:22;;;;;;;34.20;3.55;;;;;;;;;;5006929;28;20049;-59
2022/09/22 09:45:52;;;;;;;28.88;3.03;;;;;;;;;;5036479;28;20071;-59
2022/09/22 09:48:24;;;;;;;58.47;5.00;;;;;;;;;;5044639;28;20038;-59
2022/09/22 09:50:51;;;;;;;47.58;4.72;;;;;;;;;;5047778;28;20045;-59
2022/09/22 09:53:29;;;;;;;77.95;6.60;;;;;;;;;;5046004;28;20041;-59
2022/09/22 09:55:55;;;;;;;32.20;4.05;;;;;;;;;;5044686;28;20095;-59
2022/09/22 10:01:11;;;;;;;38.15;3.55;;;;;;;;;;5044613;28;20045;-60
2022/09/22 10:03:42;;;;;;;37.83;3.63;;;;;;;;;;5044334;28;20045;-59
2022/09/22 10:06:09;;;;;;;80.55;6.78;;;;;;;;;;5044928;28;20542;-59
2022/09/22 10:08:48;;;;;;;65.93;5.57;;;;;;;;;;5048277;28;20044;-59
2022/09/22 10:11:14;;;;;;;43.20;4.40;;;;;;;;;;5045456;28;20071;-60
2022/09/22 10:13:42;;;;;;;31.02;3.50;;;;;;;;;;5044252;28;20044;-59
2022/09/22 10:16:19;;;;;;;52.15;5.10;;;;;;;;;;5044189;28;20037;-59
2022/09/22 10:18:47;;;;;;;63.72;11.15;;;;;;;;;;5044253;28;20448;-59
2022/09/22 10:21:17;;;;;;;73.40;10.52;;;;;;;;;;5051735;28;20048;-59
2022/09/22 10:23:51;;;;;;;49.60;7.75;;;;;;;;;;5044169;28;20573;-59
2022/09/22 10:26:29;;;;;;;30.60;3.40;;;;;;;;;;5046259;28;20041;-59
2022/09/22 10:29:10;;;;;;;37.78;4.78;;;;;;;;;;5048548;28;20045;-59
2022/09/22 10:31:40;;;;;;;41.70;5.65;;;;;;;;;;5044054;28;20059;-59
2022/09/22 10:34:25;;;;;;;55.17;4.68;;;;;;;;;;5043673;28;20365;-59
2022/09/22 10:36:52;;;;;;;40.10;3.83;;;;;;;;;;5043573;28;20437;-59
2022/09/22 10:39:21;;;;;;;38.92;4.00;;;;;;;;;;5045987;28;20037;-59
2022/09/22 10:41:48;;;;;;;68.90;6.15;;;;;;;;;;5051305;28;20083;-59
2022/09/22 10:44:19;;;;;;;41.15;4.72;;;;;;;;;;5048683;28;20708;-59
2022/09/22 10:47:14;;;;;;;75.18;6.43;;;;;;;;;;5047632;28;20075;-59
2022/09/22 10:49:46;;;;;;;32.78;3.38;;;;;;;;;;5047899;28;20049;-60
2022/09/22 10:52:28;;;;;;;55.40;4.88;;;;;;;;;;5046616;28;20041;-60
2022/09/22 10:54:54;;;;;;;18.75;2.20;;;;;;;;;;5047933;28;20616;-60
2022/09/22 10:57:27;;;;;;;39.50;3.67;;;;;;;;;;5047606;28;20041;-59
2022/09/22 11:00:09;;;;;;;58.38;4.53;;;;;;;;;;5050650;28;20045;-60
2022/09/22 11:02:55;;;;;;;42.83;4.13;;;;;;;;;;5050625;28;20433;-59
2022/09/22 11:12:15;;;;;;;29.25;2.92;;;;;;;;;;5049774;28;20171;-59
2022/09/22 11:14:00;;;;;;;46.42;4.22;;;;;;;;;;5047103;28;20095;-59
2022/09/22 11:16:33;;;;;;;45.90;4.43;;;;;;;;;;5046617;28;20536;-59
2022/09/22 11:19:18;;;;;;;47.85;4.90;;;;;;;;;;5047554;28;20068;-59
2022/09/22 11:22:02;;;;;;;46.78;4.50;;;;;;;;;;5054311;28;20541;-59
2022/09/22 11:24:39;;;;;;;32.88;3.53;;;;;;;;;;5047664;28;20069;-59
2022/09/22 11:27:10;;;;;;;77.38;6.10;;;;;;;;;;5048104;28;20045;-59
2022/09/22 11:29:48;;;;;;;39.28;3.75;;;;;;;;;;5051151;28;20049;-59
2022/09/22 11:32:18;;;;;;;79.68;6.00;;;;;;;;;;5048045;28;20137;-59
2022/09/22 11:35:00;;;;;;;63.65;5.40;;;;;;;;;;5046684;28;20053;-60
2022/09/22 11:37:29;;;;;;;43.58;4.45;;;;;;;;;;5046199;28;20045;-59
2022/09/22 11:40:15;;;;;;;51.50;4.15;;;;;;;;;;5046706;28;20044;-60
2022/09/22 11:42:42;;;;;;;46.17;4.47;;;;;;;;;;5046619;28;20417;-59
2022/09/22 11:45:21;;;;;;;43.92;4.45;;;;;;;;;;5050707;28;20037;-59
2022/09/22 11:48:03;;;;;;;51.60;4.85;;;;;;;;;;5050627;28;20079;-59
2022/09/22 11:50:32;;;;;;;27.13;3.17;;;;;;;;;;5048884;28;20056;-59
2022/09/22 11:53:18;;;;;;;63.47;5.38;;;;;;;;;;5045960;28;20037;-59
2022/09/22 11:56:05;;;;;;;34.17;3.55;;;;;;;;;;5046419;28;20563;-60
2022/09/22 11:58:32;;;;;;;80.00;6.35;;;;;;;;;;5046145;28;20045;-59
2022/09/22 12:01:07;;;;;;;59.33;5.03;;;;;;;;;;5045032;28;20052;-59
2022/09/22 12:03:47;;;;;;;62.47;5.78;;;;;;;;;;5046155;28;20037;-59
2022/09/22 12:06:16;;;;;;;64.53;5.45;;;;;;;;;;5046739;28;20577;-59
2022/09/22 12:08:47;;;;;;;37.00;4.15;;;;;;;;;;5051405;28;20052;-59
2022/09/22 12:11:15;;;;;;;70.30;6.57;;;;;;;;;;5046567;28;20139;-59
2022/09/22 12:13:42;;;;;;;38.33;4.72;;;;;;;;;;5046084;28;20044;-59
2022/09/22 12:16:09;;;;;;;59.35;5.63;;;;;;;;;;5045674;28;20049;-59
2022/09/22 12:19:13;;;;;;;82.55;7.40;;;;;;;;;;5045649;28;20041;-59
2022/09/22 12:21:43;;;;;;;72.90;6.97;;;;;;;;;;5015274;28;20411;-59
2022/09/22 12:24:10;;;;;;;35.65;4.25;;;;;;;;;;5007810;28;20527;-59
2022/09/22 12:26:38;;;;;;;36.00;4.30;;;;;;;;;;5011770;28;20148;-59
2022/09/22 12:29:13;;;;;;;76.53;6.85;;;;;;;;;;5008362;28;20139;-59
2022/09/22 12:31:46;;;;;;;66.78;6.45;;;;;;;;;;5007626;28;20064;-59
2022/09/22 12:34:16;;;;;;;60.38;5.78;;;;;;;;;;5007166;28;20108;-59
2022/09/22 12:36:43;;;;;;;30.10;5.18;;;;;;;;;;4991324;28;20828;-59
2022/09/22 12:39:10;;;;;;;39.05;4.47;;;;;;;;;;5007312;28;20078;-59
2022/09/22 12:41:46;;;;;;;71.97;6.32;;;;;;;;;;5007967;28;20621;-59
2022/09/22 12:44:31;;;;;;;52.58;10.20;;;;;;;;;;5007747;28;20104;-59
2022/09/22 12:47:00;;;;;;;55.10;5.13;;;;;;;;;;5007457;28;20400;-59
2022/09/22 12:49:27;;;;;;;33.65;4.18;;;;;;;;;;4990620;28;20096;-60
2022/09/22 12:51:53;;;;;;;73.65;6.50;;;;;;;;;;5017205;28;20049;-59
2022/09/22 12:54:23;;;;;;;90.30;7.40;;;;;;;;;;5044803;28;20406;-59
2022/09/22 12:56:59;;;;;;;31.67;4.10;;;;;;;;;;5049437;28;20044;-60
2022/09/22 12:59:35;;;;;;;56.85;5.15;;;;;;;;;;5047959;28;20049;-59
2022/09/22 13:02:12;;;;;;;53.17;4.97;;;;;;;;;;5045606;28;20094;-59
2022/09/22 13:04:39;;;;;;;44.35;4.95;;;;;;;;;;5045168;28;20507;-59
2022/09/22 13:07:24;;;;;;;69.30;5.97;;;;;;;;;;5045157;28;20041;-59
2022/09/22 13:10:10;;;;;;;42.72;4.30;;;;;;;;;;5044868;28;20049;-59
2022/09/22 13:12:37;;;;;;;60.08;5.55;;;;;;;;;;5045140;28;20544;-59
2022/09/22 13:15:03;;;;;;;50.92;4.65;;;;;;;;;;5047286;28;20059;-59
2022/09/22 13:17:44;;;;;;;47.40;4.72;;;;;;;;;;5047330;28;20041;-59
2022/09/22 13:20:14;;;;;;;48.17;4.82;;;;;;;;;;5047540;28;20139;-59
2022/09/22 13:22:41;;;;;;;57.05;6.72;;;;;;;;;;5048993;28;20064;-59
2022/09/22 13:25:18;;;;;;;47.25;4.90;;;;;;;;;;5045739;28;20049;-59
2022/09/22 13:27:45;;;;;;;47.67;4.95;;;;;;;;;;5044523;28;20037;-60
2022/09/22 13:30:13;;;;;;;66.38;6.03;;;;;;;;;;5045499;28;20041;-59
2022/09/22 13:32:46;;;;;;;37.83;4.18;;;;;;;;;;5049060;28;20057;-59
2022/09/22 13:35:22;;;;;;;53.55;5.13;;;;;;;;;;5044933;28;20124;-60
2022/09/22 13:37:49;;;;;;;40.70;4.22;;;;;;;;;;5044570;28;20061;-59
2022/09/22 13:40:15;;;;;;;37.10;3.92;;;;;;;;;;5044316;28;20040;-59
2022/09/22 13:42:43;;;;;;;66.30;6.28;;;;;;;;;;5044694;28;20486;-59
2022/09/22 13:45:17;;;;;;;57.30;5.90;;;;;;;;;;5045673;28;20516;-59
2022/09/22 13:47:45;;;;;;;51.30;4.93;;;;;;;;;;5045031;28;20049;-59
2022/09/22 13:50:18;;;;;;;76.85;6.75;;;;;;;;;;5044093;28;20428;-59
2022/09/22 13:52:49;;;;;;;59.60;5.53;;;;;;;;;;5044007;28;20045;-60
2022/09/22 13:55:20;;;;;;;85.63;7.18;;;;;;;;;;5044290;28;20512;-59
2022/09/22 13:57:47;;;;;;;61.00;5.82;;;;;;;;;;5044359;28;20040;-59
2022/09/22 14:00:27;;;;;;;60.58;5.32;;;;;;;;;;5044728;28;20494;-59
2022/09/22 14:02:59;;;;;;;46.10;4.65;;;;;;;;;;5045237;28;20063;-59
2022/09/22 14:05:27;;;;;;;48.78;5.30;;;;;;;;;;5046730;28;20052;-59
2022/09/22 14:07:55;;;;;;;69.22;5.80;;;;;;;;;;5043510;28;20052;-59
2022/09/22 14:10:39;;;;;;;22.08;3.10;;;;;;;;;;5043048;28;20057;-59
2022/09/22 14:13:25;;;;;;;63.92;5.50;;;;;;;;;;5043874;28;20037;-59
2022/09/22 14:15:52;;;;;;;40.50;4.28;;;;;;;;;;5049143;28;20459;-59
2022/09/22 14:18:26;;;;;;;51.53;4.68;;;;;;;;;;5048985;28;20101;-59
2022/09/22 14:20:55;;;;;;;51.33;5.20;;;;;;;;;;5051682;28;20055;-59
2022/09/22 14:23:28;;;;;;;36.42;4.18;;;;;;;;;;5051560;28;20037;-59
2022/09/22 14:25:56;;;;;;;84.63;6.75;;;;;;;;;;5047510;28;20471;-59
2022/09/22 14:28:25;;;;;;;24.17;3.55;;;;;;;;;;5048918;28;20501;-59
2022/09/22 14:30:51;;;;;;;56.75;5.45;;;;;;;;;;5045698;28;20037;-59
2022/09/22 14:33:25;;;;;;;62.00;5.65;;;;;;;;;;5050437;28;20041;-59
2022/09/22 14:36:03;;;;;;;68.45;6.70;;;;;;;;;;5050632;28;20490;-58
2022/09/22 14:38:34;;;;;;;57.55;5.57;;;;;;;;;;5050108;28;20041;-59
2022/09/22 14:41:01;;;;;;;58.85;5.40;;;;;;;;;;5047344;28;20488;-58
2022/09/22 14:43:37;;;;;;;60.05;5.35;;;;;;;;;;5047264;28;20049;-62
2022/09/22 14:46:20;;;;;;;38.28;4.20;;;;;;;;;;5047256;28;20103;-59
2022/09/22 14:48:47;;;;;;;29.67;3.47;;;;;;;;;;5047673;28;20035;-59
2022/09/22 14:51:15;;;;;;;60.92;5.43;;;;;;;;;;5048485;28;20513;-58
2022/09/22 14:53:44;;;;;;;82.32;6.70;;;;;;;;;;5051686;28;20041;-59
2022/09/22 14:56:13;;;;;;;63.97;5.82;;;;;;;;;;5047858;28;20065;-59
2022/09/22 14:58:41;;;;;;;28.23;3.40;;;;;;;;;;5041412;28;20048;-60
2022/09/22 15:04:05;;;;;;;61.92;5.38;;;;;;;;;;5047171;28;20072;-59